sensor_id;sensor_type;location;lat;lon;timestamp;temperature;humidity
19437;DHT22;9854;50.968;4.168;2023-05-10T00:00:40;14.20;99.90
19437;DHT22;9854;50.968;4.168;2023-05-10T00:03:06;14.20;99.90
19437;DHT22;9854;50.968;4.168;2023-05-10T00:05:32;14.10;99.90
19437;DHT22;9854;50.968;4.168;2023-05-10T00:07:58;14.00;99.90
19437;DHT22;9854;50.968;4.168;2023-05-10T00:10:24;14.00;99.90
19437;DHT22;9854;50.968;4.168;2023-05-10T00:12:51;14.10;99.90
19437;DHT22;9854;50.968;4.168;2023-05-10T00:15:17;14.30;99.90
19437;DHT22;9854;50.968;4.168;2023-05-10T00:17:43;14.30;99.90
19437;DHT22;9854;50.968;4.168;2023-05-10T00:20:10;14.30;99.90
19437;DHT22;9854;50.968;4.168;2023-05-10T00:22:36;14.10;99.90
19437;DHT22;9854;50.968;4.168;2023-05-10T00:25:02;14.20;99.90
19437;DHT22;9854;50.968;4.168;2023-05-10T00:27:28;14.20;99.90
19437;DHT22;9854;50.968;4.168;2023-05-10T00:29:54;14.20;99.90
19437;DHT22;9854;50.968;4.168;2023-05-10T00:32:21;14.20;99.90
19437;DHT22;9854;50.968;4.168;2023-05-10T00:34:47;14.20;99.90
19437;DHT22;9854;50.968;4.168;2023-05-10T00:37:13;14.20;99.90
19437;DHT22;9854;50.968;4.168;2023-05-10T00:39:39;14.10;99.90
19437;DHT22;9854;50.968;4.168;2023-05-10T00:42:05;14.10;99.90
19437;DHT22;9854;50.968;4.168;2023-05-10T00:44:32;14.30;99.90
19437;DHT22;9854;50.968;4.168;2023-05-10T00:46:59;14.30;99.90
19437;DHT22;9854;50.968;4.168;2023-05-10T00:49:25;14.40;99.90
19437;DHT22;9854;50.968;4.168;2023-05-10T00:51:51;14.30;99.90
19437;DHT22;9854;50.968;4.168;2023-05-10T00:54:17;14.20;99.90
19437;DHT22;9854;50.968;4.168;2023-05-10T00:56:43;14.20;99.90
19437;DHT22;9854;50.968;4.168;2023-05-10T00:59:15;14.30;99.90
19437;DHT22;9854;50.968;4.168;2023-05-10T01:01:43;14.40;99.90
19437;DHT22;9854;50.968;4.168;2023-05-10T01:04:10;14.50;99.90
19437;DHT22;9854;50.968;4.168;2023-05-10T01:06:38;14.60;99.90
19437;DHT22;9854;50.968;4.168;2023-05-10T01:09:04;14.60;99.90
19437;DHT22;9854;50.968;4.168;2023-05-10T01:11:35;14.40;99.90
19437;DHT22;9854;50.968;4.168;2023-05-10T01:14:02;14.60;99.90
19437;DHT22;9854;50.968;4.168;2023-05-10T01:16:36;14.50;99.90
19437;DHT22;9854;50.968;4.168;2023-05-10T01:19:12;14.50;99.90
19437;DHT22;9854;50.968;4.168;2023-05-10T01:21:57;14.30;99.90
19437;DHT22;9854;50.968;4.168;2023-05-10T01:24:59;14.40;99.90
19437;DHT22;9854;50.968;4.168;2023-05-10T01:33:29;14.10;99.90
19437;DHT22;9854;50.968;4.168;2023-05-10T01:36:32;14.10;99.90
19437;DHT22;9854;50.968;4.168;2023-05-10T01:39:20;14.10;99.90
19437;DHT22;9854;50.968;4.168;2023-05-10T01:41:53;14.30;99.90
19437;DHT22;9854;50.968;4.168;2023-05-10T01:44:37;14.40;99.90
19437;DHT22;9854;50.968;4.168;2023-05-10T01:47:09;14.40;99.90
19437;DHT22;9854;50.968;4.168;2023-05-10T01:50:03;14.20;99.90
19437;DHT22;9854;50.968;4.168;2023-05-10T01:52:35;14.20;99.90
19437;DHT22;9854;50.968;4.168;2023-05-10T01:55:06;14.20;99.90
19437;DHT22;9854;50.968;4.168;2023-05-10T01:57:34;14.30;99.90
19437;DHT22;9854;50.968;4.168;2023-05-10T02:00:03;14.20;99.90
19437;DHT22;9854;50.968;4.168;2023-05-10T02:02:38;14.10;99.90
19437;DHT22;9854;50.968;4.168;2023-05-10T02:05:06;14.20;99.90
19437;DHT22;9854;50.968;4.168;2023-05-10T02:07:37;14.10;99.90
19437;DHT22;9854;50.968;4.168;2023-05-10T02:10:04;14.20;99.90
19437;DHT22;9854;50.968;4.168;2023-05-10T02:12:58;14.10;99.90
19437;DHT22;9854;50.968;4.168;2023-05-10T02:15:24;14.10;99.90
19437;DHT22;9854;50.968;4.168;2023-05-10T02:17:54;14.00;99.90
19437;DHT22;9854;50.968;4.168;2023-05-10T02:20:22;14.00;99.90
19437;DHT22;9854;50.968;4.168;2023-05-10T02:22:51;13.90;99.90
19437;DHT22;9854;50.968;4.168;2023-05-10T02:25:19;13.90;99.90
19437;DHT22;9854;50.968;4.168;2023-05-10T02:27:47;13.90;99.90
19437;DHT22;9854;50.968;4.168;2023-05-10T02:30:15;13.90;99.90
19437;DHT22;9854;50.968;4.168;2023-05-10T02:32:41;13.80;99.90
19437;DHT22;9854;50.968;4.168;2023-05-10T02:35:09;13.80;99.90
19437;DHT22;9854;50.968;4.168;2023-05-10T02:37:37;13.90;99.90
19437;DHT22;9854;50.968;4.168;2023-05-10T02:40:05;13.80;99.90
19437;DHT22;9854;50.968;4.168;2023-05-10T02:42:35;13.70;99.90
19437;DHT22;9854;50.968;4.168;2023-05-10T02:45:05;13.70;99.90
19437;DHT22;9854;50.968;4.168;2023-05-10T02:47:33;13.60;99.90
19437;DHT22;9854;50.968;4.168;2023-05-10T02:49:59;13.60;99.90
19437;DHT22;9854;50.968;4.168;2023-05-10T02:52:33;13.50;99.90
19437;DHT22;9854;50.968;4.168;2023-05-10T02:55:02;13.50;99.90
19437;DHT22;9854;50.968;4.168;2023-05-10T02:57:32;13.30;99.90
19437;DHT22;9854;50.968;4.168;2023-05-10T02:59:59;13.30;99.90
19437;DHT22;9854;50.968;4.168;2023-05-10T03:02:26;13.30;99.90
19437;DHT22;9854;50.968;4.168;2023-05-10T03:04:53;13.30;99.90
19437;DHT22;9854;50.968;4.168;2023-05-10T03:07:19;13.30;99.90
19437;DHT22;9854;50.968;4.168;2023-05-10T03:09:50;13.30;99.90
19437;DHT22;9854;50.968;4.168;2023-05-10T03:15:55;13.30;99.90
19437;DHT22;9854;50.968;4.168;2023-05-10T03:18:37;13.30;99.90
19437;DHT22;9854;50.968;4.168;2023-05-10T03:21:07;13.20;99.90
19437;DHT22;9854;50.968;4.168;2023-05-10T03:23:47;13.10;99.90
19437;DHT22;9854;50.968;4.168;2023-05-10T03:26:20;13.20;99.90
19437;DHT22;9854;50.968;4.168;2023-05-10T03:28:48;13.30;99.90
19437;DHT22;9854;50.968;4.168;2023-05-10T03:31:15;13.30;99.90
19437;DHT22;9854;50.968;4.168;2023-05-10T03:33:50;13.40;99.90
19437;DHT22;9854;50.968;4.168;2023-05-10T03:36:16;13.40;99.90
19437;DHT22;9854;50.968;4.168;2023-05-10T03:38:42;13.50;99.90
19437;DHT22;9854;50.968;4.168;2023-05-10T03:41:08;13.50;99.90
19437;DHT22;9854;50.968;4.168;2023-05-10T03:43:35;13.40;99.90
19437;DHT22;9854;50.968;4.168;2023-05-10T03:46:04;13.50;99.90
19437;DHT22;9854;50.968;4.168;2023-05-10T03:48:32;13.40;99.90
19437;DHT22;9854;50.968;4.168;2023-05-10T03:50:58;13.40;99.90
19437;DHT22;9854;50.968;4.168;2023-05-10T03:53:24;13.30;99.90
19437;DHT22;9854;50.968;4.168;2023-05-10T03:55:50;13.30;99.90
19437;DHT22;9854;50.968;4.168;2023-05-10T03:58:16;13.20;99.90
19437;DHT22;9854;50.968;4.168;2023-05-10T04:00:43;13.10;99.90
19437;DHT22;9854;50.968;4.168;2023-05-10T04:03:11;13.20;99.90
19437;DHT22;9854;50.968;4.168;2023-05-10T04:05:37;13.20;99.90
19437;DHT22;9854;50.968;4.168;2023-05-10T04:08:04;13.10;99.90
19437;DHT22;9854;50.968;4.168;2023-05-10T04:10:30;13.30;99.90
19437;DHT22;9854;50.968;4.168;2023-05-10T04:12:56;13.30;99.90
19437;DHT22;9854;50.968;4.168;2023-05-10T04:15:23;13.30;99.90
19437;DHT22;9854;50.968;4.168;2023-05-10T04:17:49;13.30;99.90
19437;DHT22;9854;50.968;4.168;2023-05-10T04:20:16;13.20;99.90
19437;DHT22;9854;50.968;4.168;2023-05-10T04:22:42;13.20;99.90
19437;DHT22;9854;50.968;4.168;2023-05-10T04:25:08;13.20;99.90
19437;DHT22;9854;50.968;4.168;2023-05-10T04:27:34;13.30;99.90
19437;DHT22;9854;50.968;4.168;2023-05-10T04:30:01;13.20;99.90
19437;DHT22;9854;50.968;4.168;2023-05-10T04:32:27;13.20;99.90
19437;DHT22;9854;50.968;4.168;2023-05-10T04:34:53;13.20;99.90
19437;DHT22;9854;50.968;4.168;2023-05-10T04:37:20;13.20;99.90
19437;DHT22;9854;50.968;4.168;2023-05-10T04:39:46;13.20;99.90
19437;DHT22;9854;50.968;4.168;2023-05-10T04:42:13;13.20;99.90
19437;DHT22;9854;50.968;4.168;2023-05-10T04:44:40;13.20;99.90
19437;DHT22;9854;50.968;4.168;2023-05-10T04:47:06;13.30;99.90
19437;DHT22;9854;50.968;4.168;2023-05-10T04:49:33;13.30;99.90
19437;DHT22;9854;50.968;4.168;2023-05-10T04:51:59;13.30;99.90
19437;DHT22;9854;50.968;4.168;2023-05-10T04:54:25;13.30;99.90
19437;DHT22;9854;50.968;4.168;2023-05-10T04:56:51;13.40;99.90
19437;DHT22;9854;50.968;4.168;2023-05-10T04:59:17;13.60;99.90
19437;DHT22;9854;50.968;4.168;2023-05-10T05:01:44;13.60;99.90
19437;DHT22;9854;50.968;4.168;2023-05-10T05:04:10;13.60;99.90
19437;DHT22;9854;50.968;4.168;2023-05-10T05:06:36;13.70;99.90
19437;DHT22;9854;50.968;4.168;2023-05-10T05:09:02;13.80;99.90
19437;DHT22;9854;50.968;4.168;2023-05-10T05:11:29;13.80;99.90
19437;DHT22;9854;50.968;4.168;2023-05-10T05:13:55;13.80;99.90
19437;DHT22;9854;50.968;4.168;2023-05-10T05:16:21;13.70;99.90
19437;DHT22;9854;50.968;4.168;2023-05-10T05:18:47;13.90;99.90
19437;DHT22;9854;50.968;4.168;2023-05-10T05:21:17;14.00;99.90
19437;DHT22;9854;50.968;4.168;2023-05-10T05:23:43;14.00;99.90
19437;DHT22;9854;50.968;4.168;2023-05-10T05:26:10;14.20;99.90
19437;DHT22;9854;50.968;4.168;2023-05-10T05:28:36;14.20;99.90
19437;DHT22;9854;50.968;4.168;2023-05-10T05:31:06;14.20;99.90
19437;DHT22;9854;50.968;4.168;2023-05-10T05:33:35;14.20;99.90
19437;DHT22;9854;50.968;4.168;2023-05-10T05:36:05;14.20;99.90
19437;DHT22;9854;50.968;4.168;2023-05-10T05:38:32;14.20;99.90
19437;DHT22;9854;50.968;4.168;2023-05-10T05:40:58;14.30;99.90
19437;DHT22;9854;50.968;4.168;2023-05-10T05:43:24;14.50;99.90
19437;DHT22;9854;50.968;4.168;2023-05-10T05:45:52;14.50;99.90
19437;DHT22;9854;50.968;4.168;2023-05-10T05:48:19;14.40;99.90
19437;DHT22;9854;50.968;4.168;2023-05-10T05:50:45;14.40;99.90
19437;DHT22;9854;50.968;4.168;2023-05-10T05:53:12;14.30;99.90
19437;DHT22;9854;50.968;4.168;2023-05-10T05:55:38;14.30;99.90
19437;DHT22;9854;50.968;4.168;2023-05-10T05:58:04;14.30;99.90
19437;DHT22;9854;50.968;4.168;2023-05-10T06:00:30;14.50;99.90
19437;DHT22;9854;50.968;4.168;2023-05-10T06:02:56;14.50;99.90
19437;DHT22;9854;50.968;4.168;2023-05-10T06:05:22;14.70;99.90
19437;DHT22;9854;50.968;4.168;2023-05-10T06:07:49;14.70;99.90
19437;DHT22;9854;50.968;4.168;2023-05-10T06:10:15;14.50;99.90
19437;DHT22;9854;50.968;4.168;2023-05-10T06:12:41;14.40;99.90
19437;DHT22;9854;50.968;4.168;2023-05-10T06:15:08;14.60;99.90
19437;DHT22;9854;50.968;4.168;2023-05-10T06:17:34;14.60;99.90
19437;DHT22;9854;50.968;4.168;2023-05-10T06:20:00;14.50;99.90
19437;DHT22;9854;50.968;4.168;2023-05-10T06:22:30;14.50;99.90
19437;DHT22;9854;50.968;4.168;2023-05-10T06:24:56;14.50;99.90
19437;DHT22;9854;50.968;4.168;2023-05-10T06:27:22;14.30;99.90
19437;DHT22;9854;50.968;4.168;2023-05-10T06:29:48;14.40;99.90
19437;DHT22;9854;50.968;4.168;2023-05-10T06:32:14;14.20;99.90
19437;DHT22;9854;50.968;4.168;2023-05-10T06:34:41;14.30;99.90
19437;DHT22;9854;50.968;4.168;2023-05-10T06:37:08;14.20;99.90
19437;DHT22;9854;50.968;4.168;2023-05-10T06:39:35;14.10;99.90
19437;DHT22;9854;50.968;4.168;2023-05-10T06:42:02;14.10;99.90
19437;DHT22;9854;50.968;4.168;2023-05-10T06:44:30;14.10;99.90
19437;DHT22;9854;50.968;4.168;2023-05-10T06:46:56;14.20;99.90
19437;DHT22;9854;50.968;4.168;2023-05-10T06:49:22;14.20;99.90
19437;DHT22;9854;50.968;4.168;2023-05-10T06:51:48;14.10;99.90
19437;DHT22;9854;50.968;4.168;2023-05-10T06:54:14;14.20;99.90
19437;DHT22;9854;50.968;4.168;2023-05-10T06:56:40;14.30;99.90
19437;DHT22;9854;50.968;4.168;2023-05-10T06:59:07;14.30;99.90
19437;DHT22;9854;50.968;4.168;2023-05-10T07:01:33;14.30;99.90
19437;DHT22;9854;50.968;4.168;2023-05-10T07:03:59;14.30;99.90
19437;DHT22;9854;50.968;4.168;2023-05-10T07:06:25;14.30;99.90
19437;DHT22;9854;50.968;4.168;2023-05-10T07:08:51;14.40;99.90
19437;DHT22;9854;50.968;4.168;2023-05-10T07:11:17;14.40;99.90
19437;DHT22;9854;50.968;4.168;2023-05-10T07:13:42;14.50;99.90
19437;DHT22;9854;50.968;4.168;2023-05-10T07:16:10;14.70;99.90
19437;DHT22;9854;50.968;4.168;2023-05-10T07:18:35;14.80;99.90
19437;DHT22;9854;50.968;4.168;2023-05-10T07:21:01;14.60;99.90
19437;DHT22;9854;50.968;4.168;2023-05-10T07:23:27;14.70;99.90
19437;DHT22;9854;50.968;4.168;2023-05-10T07:25:53;14.90;99.90
19437;DHT22;9854;50.968;4.168;2023-05-10T07:28:19;14.90;99.90
19437;DHT22;9854;50.968;4.168;2023-05-10T07:30:45;15.00;99.90
19437;DHT22;9854;50.968;4.168;2023-05-10T07:33:25;15.10;99.90
19437;DHT22;9854;50.968;4.168;2023-05-10T07:35:53;15.10;99.90
19437;DHT22;9854;50.968;4.168;2023-05-10T07:38:19;15.00;99.90
19437;DHT22;9854;50.968;4.168;2023-05-10T07:40:44;15.00;99.90
19437;DHT22;9854;50.968;4.168;2023-05-10T07:43:10;15.00;99.90
19437;DHT22;9854;50.968;4.168;2023-05-10T07:45:50;15.00;99.90
19437;DHT22;9854;50.968;4.168;2023-05-10T07:48:37;15.40;99.90
19437;DHT22;9854;50.968;4.168;2023-05-10T07:51:02;15.40;99.90
19437;DHT22;9854;50.968;4.168;2023-05-10T07:53:28;15.40;99.90
19437;DHT22;9854;50.968;4.168;2023-05-10T07:55:57;15.60;99.90
19437;DHT22;9854;50.968;4.168;2023-05-10T07:58:24;15.70;99.90
19437;DHT22;9854;50.968;4.168;2023-05-10T08:00:50;15.30;99.90
19437;DHT22;9854;50.968;4.168;2023-05-10T08:03:15;15.20;99.90
19437;DHT22;9854;50.968;4.168;2023-05-10T08:05:41;15.00;99.90
19437;DHT22;9854;50.968;4.168;2023-05-10T08:08:07;14.80;99.90
19437;DHT22;9854;50.968;4.168;2023-05-10T08:10:33;14.80;99.90
19437;DHT22;9854;50.968;4.168;2023-05-10T08:12:58;14.60;99.90
19437;DHT22;9854;50.968;4.168;2023-05-10T08:15:24;14.50;99.90
19437;DHT22;9854;50.968;4.168;2023-05-10T08:17:51;14.40;99.90
19437;DHT22;9854;50.968;4.168;2023-05-10T08:20:17;14.70;99.90
19437;DHT22;9854;50.968;4.168;2023-05-10T08:22:45;14.50;99.90
19437;DHT22;9854;50.968;4.168;2023-05-10T08:25:11;14.50;99.90
19437;DHT22;9854;50.968;4.168;2023-05-10T08:27:37;14.20;99.90
19437;DHT22;9854;50.968;4.168;2023-05-10T08:30:02;14.30;99.90
19437;DHT22;9854;50.968;4.168;2023-05-10T08:32:28;14.30;99.90
19437;DHT22;9854;50.968;4.168;2023-05-10T08:34:54;14.10;99.90
19437;DHT22;9854;50.968;4.168;2023-05-10T08:37:22;14.10;99.90
19437;DHT22;9854;50.968;4.168;2023-05-10T08:39:48;14.10;99.90
19437;DHT22;9854;50.968;4.168;2023-05-10T08:42:16;14.10;99.90
19437;DHT22;9854;50.968;4.168;2023-05-10T08:44:47;14.10;99.90
19437;DHT22;9854;50.968;4.168;2023-05-10T08:47:15;14.20;99.90
19437;DHT22;9854;50.968;4.168;2023-05-10T08:49:42;14.20;99.90
19437;DHT22;9854;50.968;4.168;2023-05-10T08:52:10;14.00;99.90
19437;DHT22;9854;50.968;4.168;2023-05-10T08:54:38;14.00;99.90
19437;DHT22;9854;50.968;4.168;2023-05-10T08:57:04;14.00;99.90
19437;DHT22;9854;50.968;4.168;2023-05-10T08:59:30;13.90;99.90
19437;DHT22;9854;50.968;4.168;2023-05-10T09:01:57;13.80;99.90
19437;DHT22;9854;50.968;4.168;2023-05-10T09:04:24;13.80;99.90
19437;DHT22;9854;50.968;4.168;2023-05-10T09:06:50;14.10;99.90
19437;DHT22;9854;50.968;4.168;2023-05-10T09:09:18;14.00;99.90
19437;DHT22;9854;50.968;4.168;2023-05-10T09:11:44;14.00;99.90
19437;DHT22;9854;50.968;4.168;2023-05-10T09:14:12;13.90;99.90
19437;DHT22;9854;50.968;4.168;2023-05-10T09:16:39;13.90;99.90
19437;DHT22;9854;50.968;4.168;2023-05-10T09:19:05;13.80;99.90
19437;DHT22;9854;50.968;4.168;2023-05-10T09:21:32;13.80;99.90
19437;DHT22;9854;50.968;4.168;2023-05-10T09:24:06;13.80;99.90
19437;DHT22;9854;50.968;4.168;2023-05-10T09:26:32;13.90;99.90
19437;DHT22;9854;50.968;4.168;2023-05-10T09:28:59;14.00;99.90
19437;DHT22;9854;50.968;4.168;2023-05-10T09:31:50;14.00;99.90
19437;DHT22;9854;50.968;4.168;2023-05-10T09:34:32;14.20;99.90
19437;DHT22;9854;50.968;4.168;2023-05-10T09:37:00;14.40;99.90
19437;DHT22;9854;50.968;4.168;2023-05-10T09:39:35;14.80;99.90
19437;DHT22;9854;50.968;4.168;2023-05-10T09:42:08;14.80;99.90
19437;DHT22;9854;50.968;4.168;2023-05-10T09:44:35;14.80;99.90
19437;DHT22;9854;50.968;4.168;2023-05-10T09:47:02;14.80;99.90
19437;DHT22;9854;50.968;4.168;2023-05-10T09:49:27;14.70;99.90
19437;DHT22;9854;50.968;4.168;2023-05-10T09:52:04;14.70;99.90
19437;DHT22;9854;50.968;4.168;2023-05-10T09:54:30;14.70;99.90
19437;DHT22;9854;50.968;4.168;2023-05-10T09:56:57;14.70;99.90
19437;DHT22;9854;50.968;4.168;2023-05-10T09:59:25;15.00;99.90
19437;DHT22;9854;50.968;4.168;2023-05-10T10:01:55;14.80;99.90
19437;DHT22;9854;50.968;4.168;2023-05-10T10:04:21;14.70;99.90
19437;DHT22;9854;50.968;4.168;2023-05-10T10:07:01;14.80;99.90
19437;DHT22;9854;50.968;4.168;2023-05-10T10:09:28;15.00;99.90
19437;DHT22;9854;50.968;4.168;2023-05-10T10:11:54;15.00;99.90
19437;DHT22;9854;50.968;4.168;2023-05-10T10:14:20;15.10;99.90
19437;DHT22;9854;50.968;4.168;2023-05-10T10:16:48;15.00;99.90
19437;DHT22;9854;50.968;4.168;2023-05-10T10:19:14;15.30;99.90
19437;DHT22;9854;50.968;4.168;2023-05-10T10:21:40;15.40;99.90
19437;DHT22;9854;50.968;4.168;2023-05-10T10:24:06;15.50;99.90
19437;DHT22;9854;50.968;4.168;2023-05-10T10:26:35;15.50;99.90
19437;DHT22;9854;50.968;4.168;2023-05-10T10:32:19;15.60;99.90
19437;DHT22;9854;50.968;4.168;2023-05-10T10:34:47;15.60;99.90
19437;DHT22;9854;50.968;4.168;2023-05-10T10:37:13;15.60;99.90
19437;DHT22;9854;50.968;4.168;2023-05-10T10:39:39;15.40;99.90
19437;DHT22;9854;50.968;4.168;2023-05-10T10:42:05;15.50;99.90
19437;DHT22;9854;50.968;4.168;2023-05-10T10:49:31;15.30;99.90
19437;DHT22;9854;50.968;4.168;2023-05-10T10:54:40;15.40;99.90
19437;DHT22;9854;50.968;4.168;2023-05-10T10:57:14;15.50;99.90
19437;DHT22;9854;50.968;4.168;2023-05-10T10:59:43;15.90;99.90
19437;DHT22;9854;50.968;4.168;2023-05-10T11:02:09;15.90;99.90
19437;DHT22;9854;50.968;4.168;2023-05-10T11:04:42;15.90;99.90
19437;DHT22;9854;50.968;4.168;2023-05-10T11:07:18;16.00;99.90
19437;DHT22;9854;50.968;4.168;2023-05-10T11:09:46;16.10;99.90
19437;DHT22;9854;50.968;4.168;2023-05-10T11:12:12;16.10;99.90
19437;DHT22;9854;50.968;4.168;2023-05-10T11:14:38;16.10;99.90
19437;DHT22;9854;50.968;4.168;2023-05-10T11:17:22;16.10;99.90
19437;DHT22;9854;50.968;4.168;2023-05-10T11:20:08;16.40;99.90
19437;DHT22;9854;50.968;4.168;2023-05-10T11:22:54;16.50;99.90
19437;DHT22;9854;50.968;4.168;2023-05-10T11:25:26;16.80;99.90
19437;DHT22;9854;50.968;4.168;2023-05-10T11:27:52;16.70;99.90
19437;DHT22;9854;50.968;4.168;2023-05-10T11:30:17;16.60;99.90
19437;DHT22;9854;50.968;4.168;2023-05-10T11:32:43;16.50;99.90
19437;DHT22;9854;50.968;4.168;2023-05-10T11:35:11;16.40;99.90
19437;DHT22;9854;50.968;4.168;2023-05-10T11:37:38;16.40;99.90
19437;DHT22;9854;50.968;4.168;2023-05-10T11:40:08;16.30;99.90
19437;DHT22;9854;50.968;4.168;2023-05-10T11:42:37;16.10;99.90
19437;DHT22;9854;50.968;4.168;2023-05-10T11:45:02;16.10;99.90
19437;DHT22;9854;50.968;4.168;2023-05-10T11:47:28;16.00;99.90
19437;DHT22;9854;50.968;4.168;2023-05-10T11:49:54;16.10;99.90
19437;DHT22;9854;50.968;4.168;2023-05-10T11:52:20;16.40;99.90
19437;DHT22;9854;50.968;4.168;2023-05-10T11:54:51;16.70;99.90
19437;DHT22;9854;50.968;4.168;2023-05-10T11:57:20;17.00;99.90
19437;DHT22;9854;50.968;4.168;2023-05-10T11:59:46;16.90;99.90
19437;DHT22;9854;50.968;4.168;2023-05-10T12:02:13;16.70;99.90
19437;DHT22;9854;50.968;4.168;2023-05-10T12:04:39;16.60;99.90
19437;DHT22;9854;50.968;4.168;2023-05-10T12:07:05;16.60;99.90
19437;DHT22;9854;50.968;4.168;2023-05-10T12:09:31;16.60;99.90
19437;DHT22;9854;50.968;4.168;2023-05-10T12:11:56;16.90;99.90
19437;DHT22;9854;50.968;4.168;2023-05-10T12:14:26;16.80;99.90
19437;DHT22;9854;50.968;4.168;2023-05-10T12:16:51;16.60;99.90
19437;DHT22;9854;50.968;4.168;2023-05-10T12:19:20;16.90;99.90
19437;DHT22;9854;50.968;4.168;2023-05-10T12:21:47;17.20;99.90
19437;DHT22;9854;50.968;4.168;2023-05-10T12:24:12;17.20;99.90
19437;DHT22;9854;50.968;4.168;2023-05-10T12:26:39;17.20;99.90
19437;DHT22;9854;50.968;4.168;2023-05-10T12:29:14;17.40;99.90
19437;DHT22;9854;50.968;4.168;2023-05-10T12:34:33;17.40;99.90
19437;DHT22;9854;50.968;4.168;2023-05-10T12:37:00;17.50;99.90
19437;DHT22;9854;50.968;4.168;2023-05-10T12:39:26;17.00;99.90
19437;DHT22;9854;50.968;4.168;2023-05-10T12:42:02;16.90;99.90
19437;DHT22;9854;50.968;4.168;2023-05-10T12:44:28;17.00;99.90
19437;DHT22;9854;50.968;4.168;2023-05-10T12:46:54;16.90;99.90
19437;DHT22;9854;50.968;4.168;2023-05-10T12:49:19;17.00;99.90
19437;DHT22;9854;50.968;4.168;2023-05-10T12:51:45;16.70;99.90
19437;DHT22;9854;50.968;4.168;2023-05-10T12:54:11;17.00;99.90
19437;DHT22;9854;50.968;4.168;2023-05-10T12:56:36;16.80;99.90
19437;DHT22;9854;50.968;4.168;2023-05-10T12:59:02;16.60;99.90
19437;DHT22;9854;50.968;4.168;2023-05-10T13:01:28;16.70;99.90
19437;DHT22;9854;50.968;4.168;2023-05-10T13:03:53;16.50;99.90
19437;DHT22;9854;50.968;4.168;2023-05-10T13:06:19;16.60;99.90
19437;DHT22;9854;50.968;4.168;2023-05-10T13:08:45;16.70;99.90
19437;DHT22;9854;50.968;4.168;2023-05-10T13:11:10;16.90;99.90
19437;DHT22;9854;50.968;4.168;2023-05-10T13:13:36;17.10;99.90
19437;DHT22;9854;50.968;4.168;2023-05-10T13:16:02;17.00;99.90
19437;DHT22;9854;50.968;4.168;2023-05-10T13:18:28;17.00;99.90
19437;DHT22;9854;50.968;4.168;2023-05-10T13:20:54;16.90;99.90
19437;DHT22;9854;50.968;4.168;2023-05-10T13:23:20;17.10;99.90
19437;DHT22;9854;50.968;4.168;2023-05-10T13:25:45;17.10;99.90
19437;DHT22;9854;50.968;4.168;2023-05-10T13:28:11;17.30;99.90
19437;DHT22;9854;50.968;4.168;2023-05-10T13:30:36;17.30;99.90
19437;DHT22;9854;50.968;4.168;2023-05-10T13:33:02;17.10;99.90
19437;DHT22;9854;50.968;4.168;2023-05-10T13:35:28;16.90;99.90
19437;DHT22;9854;50.968;4.168;2023-05-10T13:37:53;16.70;99.90
19437;DHT22;9854;50.968;4.168;2023-05-10T13:40:22;16.60;99.90
19437;DHT22;9854;50.968;4.168;2023-05-10T13:42:47;16.60;99.90
19437;DHT22;9854;50.968;4.168;2023-05-10T13:45:13;16.70;99.90
19437;DHT22;9854;50.968;4.168;2023-05-10T13:47:38;17.00;99.90
19437;DHT22;9854;50.968;4.168;2023-05-10T13:50:05;17.20;99.90
19437;DHT22;9854;50.968;4.168;2023-05-10T13:52:31;17.40;99.90
19437;DHT22;9854;50.968;4.168;2023-05-10T13:54:56;17.60;99.90
19437;DHT22;9854;50.968;4.168;2023-05-10T13:57:22;18.00;99.90
19437;DHT22;9854;50.968;4.168;2023-05-10T13:59:49;18.10;99.90
19437;DHT22;9854;50.968;4.168;2023-05-10T14:02:15;17.80;99.90
19437;DHT22;9854;50.968;4.168;2023-05-10T14:04:41;17.80;99.90
19437;DHT22;9854;50.968;4.168;2023-05-10T14:07:06;18.10;99.90
19437;DHT22;9854;50.968;4.168;2023-05-10T14:09:32;17.90;99.90
19437;DHT22;9854;50.968;4.168;2023-05-10T14:11:58;17.70;99.90
19437;DHT22;9854;50.968;4.168;2023-05-10T14:14:24;17.20;99.90
19437;DHT22;9854;50.968;4.168;2023-05-10T14:16:50;17.40;99.90
19437;DHT22;9854;50.968;4.168;2023-05-10T14:19:15;17.00;99.90
19437;DHT22;9854;50.968;4.168;2023-05-10T14:21:41;17.00;99.90
19437;DHT22;9854;50.968;4.168;2023-05-10T14:24:06;17.10;99.90
19437;DHT22;9854;50.968;4.168;2023-05-10T14:26:32;17.00;99.90
19437;DHT22;9854;50.968;4.168;2023-05-10T14:28:59;16.80;99.90
19437;DHT22;9854;50.968;4.168;2023-05-10T14:31:25;16.60;99.90
19437;DHT22;9854;50.968;4.168;2023-05-10T14:33:51;16.60;99.90
19437;DHT22;9854;50.968;4.168;2023-05-10T14:36:17;16.30;99.90
19437;DHT22;9854;50.968;4.168;2023-05-10T14:38:43;16.00;99.90
19437;DHT22;9854;50.968;4.168;2023-05-10T14:41:08;15.80;99.90
19437;DHT22;9854;50.968;4.168;2023-05-10T14:43:34;15.90;99.90
19437;DHT22;9854;50.968;4.168;2023-05-10T14:46:00;16.00;99.90
19437;DHT22;9854;50.968;4.168;2023-05-10T14:48:26;16.10;99.90
19437;DHT22;9854;50.968;4.168;2023-05-10T14:50:52;16.10;99.90
19437;DHT22;9854;50.968;4.168;2023-05-10T14:53:18;15.90;99.90
19437;DHT22;9854;50.968;4.168;2023-05-10T14:55:43;15.70;99.90
19437;DHT22;9854;50.968;4.168;2023-05-10T14:58:09;15.50;99.90
19437;DHT22;9854;50.968;4.168;2023-05-10T15:00:35;15.30;99.90
19437;DHT22;9854;50.968;4.168;2023-05-10T15:03:01;15.20;99.90
19437;DHT22;9854;50.968;4.168;2023-05-10T15:05:26;15.10;99.90
19437;DHT22;9854;50.968;4.168;2023-05-10T15:07:52;14.90;99.90
19437;DHT22;9854;50.968;4.168;2023-05-10T15:10:18;14.70;99.90
19437;DHT22;9854;50.968;4.168;2023-05-10T15:12:43;14.50;99.90
19437;DHT22;9854;50.968;4.168;2023-05-10T15:15:09;14.60;99.90
19437;DHT22;9854;50.968;4.168;2023-05-10T15:17:34;14.60;99.90
19437;DHT22;9854;50.968;4.168;2023-05-10T15:20:01;14.80;99.90
19437;DHT22;9854;50.968;4.168;2023-05-10T15:22:29;14.80;99.90
19437;DHT22;9854;50.968;4.168;2023-05-10T15:24:55;14.70;99.90
19437;DHT22;9854;50.968;4.168;2023-05-10T15:27:21;14.70;99.90
19437;DHT22;9854;50.968;4.168;2023-05-10T15:29:46;14.70;99.90
19437;DHT22;9854;50.968;4.168;2023-05-10T15:32:12;14.80;99.90
19437;DHT22;9854;50.968;4.168;2023-05-10T15:34:37;14.80;99.90
19437;DHT22;9854;50.968;4.168;2023-05-10T15:37:03;14.50;99.90
19437;DHT22;9854;50.968;4.168;2023-05-10T15:39:29;14.50;99.90
19437;DHT22;9854;50.968;4.168;2023-05-10T15:41:54;14.70;99.90
19437;DHT22;9854;50.968;4.168;2023-05-10T15:44:20;14.70;99.90
19437;DHT22;9854;50.968;4.168;2023-05-10T15:46:46;14.70;99.90
19437;DHT22;9854;50.968;4.168;2023-05-10T15:49:11;14.60;99.90
19437;DHT22;9854;50.968;4.168;2023-05-10T15:51:37;14.50;99.90
19437;DHT22;9854;50.968;4.168;2023-05-10T15:54:03;14.50;99.90
19437;DHT22;9854;50.968;4.168;2023-05-10T15:56:31;14.70;99.90
19437;DHT22;9854;50.968;4.168;2023-05-10T15:58:58;14.90;99.90
19437;DHT22;9854;50.968;4.168;2023-05-10T16:01:23;15.00;99.90
19437;DHT22;9854;50.968;4.168;2023-05-10T16:03:52;15.10;99.90
19437;DHT22;9854;50.968;4.168;2023-05-10T16:06:17;15.20;99.90
19437;DHT22;9854;50.968;4.168;2023-05-10T16:08:43;15.40;99.90
19437;DHT22;9854;50.968;4.168;2023-05-10T16:11:08;15.50;99.90